»·PEaware :: N49872 KSEE-KONT

N49872 :: KSEE-KONT

FLIGHT INFORMATION

Flight Status: Arrived
Operator: Privately registered:
United States
More flights under this callsign
Pilot: Kyle K. (13572)
Aircraft: BEECH AIRCRAFT BARON
(BE58)
More flights by this aircraft type
Origin: KSEE Gillespie
United States
Destination: KONT Ontario Intl
United States
More flights between these airports :: More routes between these airports
Route: +MZB V23 OCN V23 DANAH V363 POXKU V8 PDZ
File this flight plan on PilotEdge
Remarks:
Altitude:
(Current/Filed)
6,000ft
Speed:
(Current/Filed)
150kts
Departed: 05-Jan-17 09:29 PM
Arrived: 05-Jan-17 10:22 PM
Distance/Time
Traveled:
80nm/0:53
Distance/Time
To Go:
Arrived

Flight Plot

Page will automatically refresh every two minutes.

Flight plan parsing failed; only flown route is shown


Map Options




Map Legend


Flown Route
Filed Route
Departure Airport
Arrival Airport
Navaid (VOR, NDB)
Fix

Horizontal Profiles

Position Reports

Time Latitude Longitude Heading Altitude Ground
Speed
05-Jan-17 20:26 32.824796 -116.969696 14 389ft 0kts
05-Jan-17 20:27 32.824796 -116.969696 14 389ft 0kts
05-Jan-17 20:28 32.824796 -116.969696 14 389ft 0kts
05-Jan-17 20:29 32.824796 -116.969696 14 389ft 0kts
05-Jan-17 20:30 32.824796 -116.969696 14 389ft 0kts
05-Jan-17 20:31 32.824796 -116.969696 14 389ft 0kts
05-Jan-17 20:32 32.824796 -116.969696 14 389ft 0kts
05-Jan-17 20:33 32.824796 -116.969696 14 389ft 0kts
05-Jan-17 20:34 32.824796 -116.969696 14 389ft 0kts
05-Jan-17 20:35 32.824796 -116.969696 14 389ft 0kts
05-Jan-17 20:36 32.824796 -116.969696 14 389ft 0kts
05-Jan-17 20:37 32.824796 -116.969696 14 389ft 0kts
05-Jan-17 20:38 32.824796 -116.969696 14 389ft 0kts
05-Jan-17 20:39 32.824796 -116.969696 14 389ft 0kts
05-Jan-17 20:40 32.824796 -116.969696 14 389ft 0kts
05-Jan-17 20:41 32.824796 -116.969696 14 389ft 0kts
05-Jan-17 20:42 32.824796 -116.969696 14 389ft 0kts
05-Jan-17 20:43 32.824796 -116.969696 14 389ft 0kts
05-Jan-17 20:44 32.824796 -116.969696 14 389ft 0kts
05-Jan-17 20:45 32.824796 -116.969696 14 389ft 0kts
05-Jan-17 20:46 32.824796 -116.969696 14 389ft 0kts
05-Jan-17 20:47 32.824796 -116.969696 14 389ft 0kts
05-Jan-17 20:48 32.824796 -116.969696 14 389ft 0kts
05-Jan-17 20:49 32.824796 -116.969696 14 389ft 0kts
05-Jan-17 20:50 32.824796 -116.969696 14 389ft 0kts
05-Jan-17 20:51 32.824796 -116.969696 14 389ft 0kts
05-Jan-17 20:52 32.824796 -116.969696 14 389ft 0kts
05-Jan-17 20:53 32.824796 -116.969696 14 389ft 0kts
05-Jan-17 20:54 32.824796 -116.969696 14 389ft 0kts
05-Jan-17 20:55 32.824796 -116.969696 14 389ft 0kts
05-Jan-17 20:56 32.824796 -116.969696 14 389ft 0kts
05-Jan-17 20:57 32.824796 -116.969696 14 389ft 0kts
05-Jan-17 20:58 32.824796 -116.969696 14 389ft 0kts
05-Jan-17 20:59 32.824796 -116.969696 14 389ft 0kts
05-Jan-17 21:00 32.824796 -116.969696 14 389ft 0kts
05-Jan-17 21:01 32.824796 -116.969696 14 389ft 0kts
05-Jan-17 21:02 32.824796 -116.969696 14 389ft 0kts
05-Jan-17 21:03 32.824796 -116.969696 14 389ft 0kts
05-Jan-17 21:04 32.824796 -116.969696 14 389ft 0kts
05-Jan-17 21:05 32.824796 -116.969696 14 389ft 0kts
05-Jan-17 21:06 32.824796 -116.969696 14 389ft 0kts
05-Jan-17 21:07 32.824796 -116.969696 14 389ft 0kts
05-Jan-17 21:08 32.824796 -116.969696 14 389ft 0kts
05-Jan-17 21:09 32.824796 -116.969696 14 389ft 0kts
05-Jan-17 21:10 32.824796 -116.969696 14 389ft 0kts
05-Jan-17 21:11 32.824796 -116.969696 14 389ft 0kts
05-Jan-17 21:12 32.824796 -116.969696 14 389ft 0kts
05-Jan-17 21:13 32.824796 -116.969696 14 389ft 0kts
05-Jan-17 21:14 32.824796 -116.969696 14 389ft 0kts
05-Jan-17 21:15 32.824796 -116.969696 14 389ft 0kts
05-Jan-17 21:16 32.824796 -116.969696 14 389ft 0kts
05-Jan-17 21:18 32.824803 -116.969714 14 389ft 0kts
05-Jan-17 21:19 32.824803 -116.969714 14 389ft 0kts
05-Jan-17 21:20 32.824803 -116.969714 14 389ft 0kts
05-Jan-17 21:21 32.824803 -116.969714 14 389ft 0kts
05-Jan-17 21:22 32.824865 -116.969596 86 389ft 1kts
05-Jan-17 21:23 32.824834 -116.969521 147 389ft 0kts
05-Jan-17 21:24 32.824823 -116.969516 165 389ft 0kts
05-Jan-17 21:26 32.825012 -116.969624 45 389ft 0kts
05-Jan-17 21:27 32.824880 -116.965595 98 389ft 14kts
05-Jan-17 21:28 32.825770 -116.964336 354 389ft 0kts
05-Jan-17 21:29 32.826949 -116.967573 280 389ft 75kts
05-Jan-17 21:30 32.819621 -116.997229 196 1624ft 119kts
05-Jan-17 21:31 32.786444 -117.000249 179 2925ft 119kts
05-Jan-17 21:32 32.775031 -117.029160 280 3755ft 117kts
05-Jan-17 21:33 32.794293 -117.059071 320 4496ft 118kts
05-Jan-17 21:34 32.819702 -117.081436 320 5329ft 106kts
05-Jan-17 21:35 32.842941 -117.102090 323 5853ft 122kts
05-Jan-17 21:36 32.870389 -117.124242 326 5960ft 147kts
05-Jan-17 21:37 32.905812 -117.151924 325 5956ft 155kts
05-Jan-17 21:38 32.942159 -117.180162 327 5955ft 157kts
05-Jan-17 21:39 32.979340 -117.207239 327 5955ft 157kts
05-Jan-17 21:40 33.013731 -117.232271 327 5955ft 157kts
05-Jan-17 21:41 33.050429 -117.260648 323 5956ft 157kts
05-Jan-17 21:42 33.085220 -117.292235 320 5956ft 157kts
05-Jan-17 21:43 33.120407 -117.323345 322 5955ft 157kts
05-Jan-17 21:44 33.155982 -117.353628 324 5955ft 157kts
05-Jan-17 21:45 33.192420 -117.382675 325 5955ft 157kts
05-Jan-17 21:46 33.228891 -117.411345 325 5955ft 157kts
05-Jan-17 21:47 33.255680 -117.440648 311 5956ft 157kts
05-Jan-17 21:48 33.287614 -117.475012 318 5949ft 146kts
05-Jan-17 21:49 33.319331 -117.506018 317 5953ft 135kts
05-Jan-17 21:50 33.341705 -117.531625 311 5954ft 132kts
05-Jan-17 21:51 33.367535 -117.562686 315 5955ft 133kts
05-Jan-17 21:52 33.395405 -117.591705 317 5952ft 129kts
05-Jan-17 21:53 33.421963 -117.619367 317 5952ft 125kts
05-Jan-17 21:54 33.447758 -117.646888 316 5953ft 123kts
05-Jan-17 21:55 33.472768 -117.674701 313 5952ft 123kts
05-Jan-17 21:56 33.494871 -117.704745 338 5909ft 124kts
05-Jan-17 21:57 33.527181 -117.712484 5 5965ft 117kts
05-Jan-17 21:58 33.559990 -117.708592 6 5960ft 120kts
05-Jan-17 21:59 33.591943 -117.696243 18 5975ft 121kts
05-Jan-17 22:00 33.623668 -117.681112 19 5985ft 122kts
05-Jan-17 22:01 33.655564 -117.665987 21 5963ft 124kts
05-Jan-17 22:02 33.687737 -117.650160 20 5953ft 125kts
05-Jan-17 22:03 33.719872 -117.634486 20 5953ft 125kts
05-Jan-17 22:04 33.752494 -117.618551 21 5927ft 128kts
05-Jan-17 22:05 33.785500 -117.601878 22 5927ft 129kts
05-Jan-17 22:06 33.818749 -117.585040 22 5926ft 130kts
05-Jan-17 22:07 33.852231 -117.568080 20 5925ft 130kts
05-Jan-17 22:08 33.885334 -117.551215 21 5923ft 128kts
05-Jan-17 22:09 33.914213 -117.525262 51 5611ft 144kts
05-Jan-17 22:10 33.940017 -117.485680 51 4931ft 155kts
05-Jan-17 22:11 33.967021 -117.444308 51 4237ft 158kts
05-Jan-17 22:12 33.991636 -117.402790 61 3921ft 140kts
05-Jan-17 22:13 34.008884 -117.364162 58 3916ft 119kts
05-Jan-17 22:14 34.024736 -117.336140 4 3906ft 93kts
05-Jan-17 22:15 34.049067 -117.348319 304 3949ft 123kts
05-Jan-17 22:16 34.055302 -117.390596 261 3778ft 136kts
05-Jan-17 22:17 34.054692 -117.433512 271 3199ft 108kts
05-Jan-17 22:18 34.054525 -117.467185 273 2606ft 98kts
05-Jan-17 22:19 34.055054 -117.500846 269 2246ft 102kts
05-Jan-17 22:20 34.054871 -117.535522 270 1747ft 102kts
05-Jan-17 22:21 34.054952 -117.568676 269 1222ft 101kts
05-Jan-17 22:22 34.054874 -117.591916 271 944ft 21kts
05-Jan-17 22:23 34.053842 -117.596746 269 944ft 20kts
05-Jan-17 22:24 34.052356 -117.603088 196 944ft 9kts

Navigation Log

Ident Type
Flight plan parsing failed, navigation log unavailable